sensor_id;sensor_type;location;lat;lon;timestamp;pressure;altitude;pressure_sealevel;temperature;humidity
74103;BME280;62853;46.166;3.640;2022-08-21T00:00:29;101599.13;;;16.94;81.18
74103;BME280;62853;46.166;3.640;2022-08-21T00:03:00;101602.00;;;16.91;82.75
74103;BME280;62853;46.166;3.640;2022-08-21T00:05:26;101598.78;;;16.86;82.32
74103;BME280;62853;46.166;3.640;2022-08-21T00:07:52;101609.66;;;16.96;86.02
74103;BME280;62853;46.166;3.640;2022-08-21T00:10:17;101603.59;;;16.94;84.93
74103;BME280;62853;46.166;3.640;2022-08-21T00:12:44;101601.09;;;16.78;82.43
74103;BME280;62853;46.166;3.640;2022-08-21T00:15:12;101605.69;;;16.76;82.54
74103;BME280;62853;46.166;3.640;2022-08-21T00:17:38;101599.22;;;16.80;85.38
74103;BME280;62853;46.166;3.640;2022-08-21T00:20:06;101601.63;;;16.83;85.11
74103;BME280;62853;46.166;3.640;2022-08-21T00:22:33;101590.72;;;16.87;85.99
74103;BME280;62853;46.166;3.640;2022-08-21T00:24:59;101592.38;;;16.76;84.09
74103;BME280;62853;46.166;3.640;2022-08-21T00:27:24;101585.34;;;16.74;84.88
74103;BME280;62853;46.166;3.640;2022-08-21T00:29:50;101601.31;;;16.74;85.27
74103;BME280;62853;46.166;3.640;2022-08-21T00:32:26;101587.38;;;16.71;84.14
74103;BME280;62853;46.166;3.640;2022-08-21T00:34:52;101592.94;;;16.68;84.86
74103;BME280;62853;46.166;3.640;2022-08-21T00:37:18;101588.34;;;16.70;85.14
74103;BME280;62853;46.166;3.640;2022-08-21T00:39:44;101585.03;;;16.66;84.37
74103;BME280;62853;46.166;3.640;2022-08-21T00:42:11;101583.41;;;16.51;80.85
74103;BME280;62853;46.166;3.640;2022-08-21T00:44:43;101587.56;;;16.55;83.09
74103;BME280;62853;46.166;3.640;2022-08-21T00:47:10;101588.53;;;16.54;83.81
74103;BME280;62853;46.166;3.640;2022-08-21T00:49:37;101580.34;;;16.57;85.78
74103;BME280;62853;46.166;3.640;2022-08-21T00:52:04;101588.63;;;16.52;83.70
74103;BME280;62853;46.166;3.640;2022-08-21T00:54:31;101583.41;;;16.51;85.66
74103;BME280;62853;46.166;3.640;2022-08-21T00:57:00;101575.66;;;16.48;85.48
74103;BME280;62853;46.166;3.640;2022-08-21T00:59:29;101582.34;;;16.41;83.21
74103;BME280;62853;46.166;3.640;2022-08-21T01:01:57;101584.00;;;16.29;82.98
74103;BME280;62853;46.166;3.640;2022-08-21T01:04:23;101580.66;;;16.40;85.77
74103;BME280;62853;46.166;3.640;2022-08-21T01:06:48;101578.94;;;16.26;82.46
74103;BME280;62853;46.166;3.640;2022-08-21T01:09:14;101584.88;;;16.29;85.00
74103;BME280;62853;46.166;3.640;2022-08-21T01:11:41;101579.66;;;16.28;84.79
74103;BME280;62853;46.166;3.640;2022-08-21T01:14:08;101585.28;;;16.23;84.12
74103;BME280;62853;46.166;3.640;2022-08-21T01:16:38;101588.19;;;16.33;87.49
74103;BME280;62853;46.166;3.640;2022-08-21T01:19:04;101580.41;;;16.30;85.94
74103;BME280;62853;46.166;3.640;2022-08-21T01:21:30;101584.44;;;16.35;86.75
74103;BME280;62853;46.166;3.640;2022-08-21T01:23:56;101576.47;;;16.35;86.82
74103;BME280;62853;46.166;3.640;2022-08-21T01:26:26;101580.91;;;16.22;84.43
74103;BME280;62853;46.166;3.640;2022-08-21T01:28:58;101567.91;;;16.05;82.27
74103;BME280;62853;46.166;3.640;2022-08-21T01:31:27;101573.16;;;16.19;87.44
74103;BME280;62853;46.166;3.640;2022-08-21T01:33:54;101569.63;;;16.18;86.93
74103;BME280;62853;46.166;3.640;2022-08-21T01:36:19;101571.00;;;16.11;84.43
74103;BME280;62853;46.166;3.640;2022-08-21T01:38:45;101577.41;;;16.22;87.85
74103;BME280;62853;46.166;3.640;2022-08-21T01:41:13;101570.59;;;16.17;86.36
74103;BME280;62853;46.166;3.640;2022-08-21T01:43:38;101568.91;;;16.16;86.81
74103;BME280;62853;46.166;3.640;2022-08-21T01:46:03;101562.69;;;16.03;84.54
74103;BME280;62853;46.166;3.640;2022-08-21T01:48:29;101576.28;;;15.98;85.18
74103;BME280;62853;46.166;3.640;2022-08-21T01:50:55;101568.19;;;15.87;83.67
74103;BME280;62853;46.166;3.640;2022-08-21T01:53:21;101575.19;;;15.88;84.13
74103;BME280;62853;46.166;3.640;2022-08-21T01:55:46;101581.25;;;15.90;86.16
74103;BME280;62853;46.166;3.640;2022-08-21T01:58:12;101564.16;;;15.94;87.46
74103;BME280;62853;46.166;3.640;2022-08-21T02:00:37;101557.34;;;15.90;87.16
74103;BME280;62853;46.166;3.640;2022-08-21T02:03:03;101564.56;;;15.88;86.80
74103;BME280;62853;46.166;3.640;2022-08-21T02:05:28;101557.09;;;15.80;84.86
74103;BME280;62853;46.166;3.640;2022-08-21T02:07:54;101549.59;;;15.87;87.35
74103;BME280;62853;46.166;3.640;2022-08-21T02:10:25;101558.09;;;15.92;87.90
74103;BME280;62853;46.166;3.640;2022-08-21T02:12:51;101553.47;;;15.81;85.39
74103;BME280;62853;46.166;3.640;2022-08-21T02:15:18;101551.88;;;15.79;86.79
74103;BME280;62853;46.166;3.640;2022-08-21T02:17:49;101551.97;;;15.77;86.37
74103;BME280;62853;46.166;3.640;2022-08-21T02:22:48;101552.44;;;15.70;86.38
74103;BME280;62853;46.166;3.640;2022-08-21T02:25:15;101550.84;;;15.67;86.44
74103;BME280;62853;46.166;3.640;2022-08-21T02:27:43;101558.25;;;15.62;84.76
74103;BME280;62853;46.166;3.640;2022-08-21T02:30:12;101544.81;;;15.51;86.17
74103;BME280;62853;46.166;3.640;2022-08-21T02:32:39;101553.16;;;15.59;87.57
74103;BME280;62853;46.166;3.640;2022-08-21T02:35:05;101550.31;;;15.48;84.69
74103;BME280;62853;46.166;3.640;2022-08-21T02:37:30;101539.69;;;15.48;86.79
74103;BME280;62853;46.166;3.640;2022-08-21T02:39:56;101559.72;;;15.53;86.85
74103;BME280;62853;46.166;3.640;2022-08-21T02:42:21;101543.22;;;15.48;86.83
74103;BME280;62853;46.166;3.640;2022-08-21T02:44:47;101550.50;;;15.44;85.16
74103;BME280;62853;46.166;3.640;2022-08-21T02:47:13;101559.16;;;15.48;86.45
74103;BME280;62853;46.166;3.640;2022-08-21T02:49:39;101552.31;;;15.44;86.60
74103;BME280;62853;46.166;3.640;2022-08-21T02:52:04;101546.91;;;15.46;87.33
74103;BME280;62853;46.166;3.640;2022-08-21T02:54:31;101558.38;;;15.46;87.09
74103;BME280;62853;46.166;3.640;2022-08-21T02:56:56;101562.19;;;15.42;86.54
74103;BME280;62853;46.166;3.640;2022-08-21T02:59:22;101549.50;;;15.33;84.82
74103;BME280;62853;46.166;3.640;2022-08-21T03:01:47;101552.72;;;15.38;87.70
74103;BME280;62853;46.166;3.640;2022-08-21T03:04:13;101555.16;;;15.41;88.63
74103;BME280;62853;46.166;3.640;2022-08-21T03:06:38;101549.41;;;15.34;87.32
74103;BME280;62853;46.166;3.640;2022-08-21T03:09:03;101554.72;;;15.34;87.27
74103;BME280;62853;46.166;3.640;2022-08-21T03:11:29;101540.50;;;15.35;88.19
74103;BME280;62853;46.166;3.640;2022-08-21T03:13:54;101552.06;;;15.34;88.03
74103;BME280;62853;46.166;3.640;2022-08-21T03:16:20;101547.31;;;15.39;88.97
74103;BME280;62853;46.166;3.640;2022-08-21T03:18:46;101548.94;;;15.28;86.37
74103;BME280;62853;46.166;3.640;2022-08-21T03:21:11;101547.06;;;15.30;87.10
74103;BME280;62853;46.166;3.640;2022-08-21T03:23:38;101544.59;;;15.27;87.24
74103;BME280;62853;46.166;3.640;2022-08-21T03:26:05;101540.03;;;15.29;88.77
74103;BME280;62853;46.166;3.640;2022-08-21T03:28:31;101552.94;;;15.20;85.25
74103;BME280;62853;46.166;3.640;2022-08-21T03:30:57;101548.94;;;15.28;88.18
74103;BME280;62853;46.166;3.640;2022-08-21T03:33:23;101545.34;;;15.29;88.49
74103;BME280;62853;46.166;3.640;2022-08-21T03:35:55;101547.16;;;15.28;88.50
74103;BME280;62853;46.166;3.640;2022-08-21T03:38:21;101546.94;;;15.31;88.89
74103;BME280;62853;46.166;3.640;2022-08-21T03:40:47;101536.91;;;15.22;87.07
74103;BME280;62853;46.166;3.640;2022-08-21T03:43:12;101532.25;;;15.25;88.60
74103;BME280;62853;46.166;3.640;2022-08-21T03:45:38;101541.66;;;15.17;87.04
74103;BME280;62853;46.166;3.640;2022-08-21T03:48:04;101544.59;;;15.12;87.96
74103;BME280;62853;46.166;3.640;2022-08-21T03:50:34;101541.94;;;15.12;88.69
74103;BME280;62853;46.166;3.640;2022-08-21T03:53:00;101549.72;;;15.15;89.10
74103;BME280;62853;46.166;3.640;2022-08-21T03:55:26;101546.97;;;15.17;89.88
74103;BME280;62853;46.166;3.640;2022-08-21T03:57:52;101542.69;;;15.14;87.95
74103;BME280;62853;46.166;3.640;2022-08-21T04:00:19;101537.03;;;15.06;88.34
74103;BME280;62853;46.166;3.640;2022-08-21T04:02:44;101534.56;;;15.03;88.51
74103;BME280;62853;46.166;3.640;2022-08-21T04:05:11;101541.66;;;15.02;89.28
74103;BME280;62853;46.166;3.640;2022-08-21T04:07:37;101536.09;;;14.93;87.68
74103;BME280;62853;46.166;3.640;2022-08-21T04:10:04;101538.47;;;14.83;87.52
74103;BME280;62853;46.166;3.640;2022-08-21T04:12:30;101538.38;;;14.84;87.18
74103;BME280;62853;46.166;3.640;2022-08-21T04:14:55;101553.13;;;14.88;87.94
74103;BME280;62853;46.166;3.640;2022-08-21T04:17:21;101551.63;;;14.84;88.00
74103;BME280;62853;46.166;3.640;2022-08-21T04:19:46;101548.22;;;14.82;88.20
74103;BME280;62853;46.166;3.640;2022-08-21T04:22:12;101546.50;;;14.67;86.74
74103;BME280;62853;46.166;3.640;2022-08-21T04:24:37;101549.13;;;14.67;85.99
74103;BME280;62853;46.166;3.640;2022-08-21T04:27:03;101553.59;;;14.66;85.97
74103;BME280;62853;46.166;3.640;2022-08-21T04:29:28;101540.50;;;14.49;85.05
74103;BME280;62853;46.166;3.640;2022-08-21T04:31:54;101550.13;;;14.50;85.13
74103;BME280;62853;46.166;3.640;2022-08-21T04:34:20;101552.09;;;14.62;89.78
74103;BME280;62853;46.166;3.640;2022-08-21T04:36:45;101544.91;;;14.48;86.97
74103;BME280;62853;46.166;3.640;2022-08-21T04:39:10;101555.34;;;14.51;86.52
74103;BME280;62853;46.166;3.640;2022-08-21T04:41:36;101554.31;;;14.54;87.64
74103;BME280;62853;46.166;3.640;2022-08-21T04:44:03;101564.03;;;14.54;86.08
74103;BME280;62853;46.166;3.640;2022-08-21T04:46:29;101552.19;;;14.61;89.67
74103;BME280;62853;46.166;3.640;2022-08-21T04:48:54;101563.38;;;14.66;88.71
74103;BME280;62853;46.166;3.640;2022-08-21T04:51:33;101567.69;;;14.67;87.78
74103;BME280;62853;46.166;3.640;2022-08-21T04:54:09;101568.47;;;14.69;88.57
74103;BME280;62853;46.166;3.640;2022-08-21T04:56:44;101564.69;;;14.59;87.07
74103;BME280;62853;46.166;3.640;2022-08-21T04:59:17;101557.72;;;14.56;87.70
74103;BME280;62853;46.166;3.640;2022-08-21T05:01:43;101566.59;;;14.71;87.01
74103;BME280;62853;46.166;3.640;2022-08-21T05:04:13;101565.91;;;14.67;89.53
74103;BME280;62853;46.166;3.640;2022-08-21T05:06:41;101575.06;;;14.62;88.45
74103;BME280;62853;46.166;3.640;2022-08-21T05:09:13;101569.91;;;14.44;86.18
74103;BME280;62853;46.166;3.640;2022-08-21T05:11:39;101562.63;;;14.48;86.88
74103;BME280;62853;46.166;3.640;2022-08-21T05:14:05;101563.28;;;14.51;89.06
74103;BME280;62853;46.166;3.640;2022-08-21T05:16:30;101565.38;;;14.46;87.83
74103;BME280;62853;46.166;3.640;2022-08-21T05:18:56;101575.78;;;14.49;87.61
74103;BME280;62853;46.166;3.640;2022-08-21T05:21:21;101571.91;;;14.55;88.80
74103;BME280;62853;46.166;3.640;2022-08-21T05:23:46;101574.56;;;14.55;87.59
74103;BME280;62853;46.166;3.640;2022-08-21T05:26:12;101576.47;;;14.53;87.93
74103;BME280;62853;46.166;3.640;2022-08-21T05:28:37;101583.25;;;14.59;89.69
74103;BME280;62853;46.166;3.640;2022-08-21T05:31:03;101576.53;;;14.51;87.96
74103;BME280;62853;46.166;3.640;2022-08-21T05:33:28;101583.25;;;14.59;89.26
74103;BME280;62853;46.166;3.640;2022-08-21T05:35:54;101572.78;;;14.56;88.88
74103;BME280;62853;46.166;3.640;2022-08-21T05:38:21;101584.75;;;14.63;89.02
74103;BME280;62853;46.166;3.640;2022-08-21T05:40:46;101580.28;;;14.63;89.90
74103;BME280;62853;46.166;3.640;2022-08-21T05:43:12;101591.56;;;14.67;89.33
74103;BME280;62853;46.166;3.640;2022-08-21T05:45:38;101585.31;;;14.68;89.69
74103;BME280;62853;46.166;3.640;2022-08-21T05:48:08;101592.34;;;14.69;88.66
74103;BME280;62853;46.166;3.640;2022-08-21T05:50:34;101596.69;;;14.70;88.79
74103;BME280;62853;46.166;3.640;2022-08-21T05:53:00;101591.19;;;14.73;89.31
74103;BME280;62853;46.166;3.640;2022-08-21T05:55:26;101587.41;;;14.77;89.31
74103;BME280;62853;46.166;3.640;2022-08-21T05:57:51;101583.81;;;14.78;88.73
74103;BME280;62853;46.166;3.640;2022-08-21T06:00:17;101590.28;;;14.88;89.20
74103;BME280;62853;46.166;3.640;2022-08-21T06:02:42;101582.22;;;14.90;89.72
74103;BME280;62853;46.166;3.640;2022-08-21T06:05:08;101595.22;;;14.95;89.63
74103;BME280;62853;46.166;3.640;2022-08-21T06:07:33;101595.03;;;14.98;89.31
74103;BME280;62853;46.166;3.640;2022-08-21T06:09:59;101589.63;;;14.99;88.58
74103;BME280;62853;46.166;3.640;2022-08-21T06:12:24;101589.88;;;15.09;89.21
74103;BME280;62853;46.166;3.640;2022-08-21T06:14:50;101588.09;;;15.10;89.37
74103;BME280;62853;46.166;3.640;2022-08-21T06:17:17;101591.03;;;15.19;89.61
74103;BME280;62853;46.166;3.640;2022-08-21T06:19:42;101595.66;;;15.16;86.47
74103;BME280;62853;46.166;3.640;2022-08-21T06:22:08;101593.31;;;15.25;90.16
74103;BME280;62853;46.166;3.640;2022-08-21T06:24:33;101592.94;;;15.32;89.64
74103;BME280;62853;46.166;3.640;2022-08-21T06:27:04;101589.13;;;15.36;88.05
74103;BME280;62853;46.166;3.640;2022-08-21T06:29:30;101593.00;;;15.44;89.53
74103;BME280;62853;46.166;3.640;2022-08-21T06:31:55;101587.31;;;15.51;89.96
74103;BME280;62853;46.166;3.640;2022-08-21T06:34:21;101587.84;;;15.56;89.05
74103;BME280;62853;46.166;3.640;2022-08-21T06:36:46;101603.09;;;15.67;90.17
74103;BME280;62853;46.166;3.640;2022-08-21T06:39:12;101595.72;;;15.72;89.81
74103;BME280;62853;46.166;3.640;2022-08-21T06:41:38;101597.97;;;15.78;89.29
74103;BME280;62853;46.166;3.640;2022-08-21T06:44:03;101595.97;;;15.81;89.27
74103;BME280;62853;46.166;3.640;2022-08-21T06:46:30;101588.47;;;15.88;89.74
74103;BME280;62853;46.166;3.640;2022-08-21T06:48:56;101588.63;;;15.99;88.41
74103;BME280;62853;46.166;3.640;2022-08-21T06:51:22;101580.25;;;16.06;90.41
74103;BME280;62853;46.166;3.640;2022-08-21T06:53:48;101591.97;;;16.16;89.43
74103;BME280;62853;46.166;3.640;2022-08-21T06:56:13;101596.84;;;16.22;89.48
74103;BME280;62853;46.166;3.640;2022-08-21T06:58:39;101592.75;;;16.31;89.46
74103;BME280;62853;46.166;3.640;2022-08-21T07:01:04;101589.56;;;16.39;88.81
74103;BME280;62853;46.166;3.640;2022-08-21T07:03:33;101600.34;;;16.50;88.57
74103;BME280;62853;46.166;3.640;2022-08-21T07:05:58;101588.84;;;16.62;87.65
74103;BME280;62853;46.166;3.640;2022-08-21T07:08:26;101595.34;;;16.71;88.75
74103;BME280;62853;46.166;3.640;2022-08-21T07:10:54;101589.50;;;16.79;87.71
74103;BME280;62853;46.166;3.640;2022-08-21T07:13:20;101582.72;;;16.87;87.88
74103;BME280;62853;46.166;3.640;2022-08-21T07:15:46;101583.69;;;16.99;87.39
74103;BME280;62853;46.166;3.640;2022-08-21T07:18:12;101584.72;;;17.09;87.44
74103;BME280;62853;46.166;3.640;2022-08-21T07:20:39;101586.19;;;17.26;87.47
74103;BME280;62853;46.166;3.640;2022-08-21T07:23:08;101588.09;;;17.37;87.33
74103;BME280;62853;46.166;3.640;2022-08-21T07:25:34;101585.97;;;17.42;86.55
74103;BME280;62853;46.166;3.640;2022-08-21T07:28:00;101583.47;;;17.52;85.26
74103;BME280;62853;46.166;3.640;2022-08-21T07:30:26;101581.88;;;17.50;85.29
74103;BME280;62853;46.166;3.640;2022-08-21T07:32:51;101581.56;;;17.54;85.36
74103;BME280;62853;46.166;3.640;2022-08-21T07:35:17;101589.56;;;17.54;85.57
74103;BME280;62853;46.166;3.640;2022-08-21T07:37:44;101590.06;;;17.59;85.76
74103;BME280;62853;46.166;3.640;2022-08-21T07:40:10;101588.88;;;17.63;85.61
74103;BME280;62853;46.166;3.640;2022-08-21T07:42:44;101591.94;;;17.70;86.51
74103;BME280;62853;46.166;3.640;2022-08-21T07:45:11;101592.75;;;17.83;86.48
74103;BME280;62853;46.166;3.640;2022-08-21T07:47:37;101589.97;;;17.98;86.57
74103;BME280;62853;46.166;3.640;2022-08-21T07:50:05;101588.19;;;18.10;85.20
74103;BME280;62853;46.166;3.640;2022-08-21T07:52:31;101580.50;;;18.29;85.17
74103;BME280;62853;46.166;3.640;2022-08-21T07:54:58;101585.63;;;18.44;84.83
74103;BME280;62853;46.166;3.640;2022-08-21T07:57:23;101583.25;;;18.63;84.84
74103;BME280;62853;46.166;3.640;2022-08-21T07:59:48;101577.69;;;18.77;82.59
74103;BME280;62853;46.166;3.640;2022-08-21T08:02:29;101577.81;;;18.76;83.36
74103;BME280;62853;46.166;3.640;2022-08-21T08:04:58;101574.03;;;18.78;81.66
74103;BME280;62853;46.166;3.640;2022-08-21T08:07:24;101575.31;;;18.97;81.87
74103;BME280;62853;46.166;3.640;2022-08-21T08:09:49;101579.91;;;19.29;80.21
74103;BME280;62853;46.166;3.640;2022-08-21T08:12:15;101575.38;;;19.52;78.96
74103;BME280;62853;46.166;3.640;2022-08-21T08:14:40;101580.97;;;19.60;76.55
74103;BME280;62853;46.166;3.640;2022-08-21T08:17:06;101574.56;;;19.51;76.35
74103;BME280;62853;46.166;3.640;2022-08-21T08:19:31;101574.56;;;19.40;78.16
74103;BME280;62853;46.166;3.640;2022-08-21T08:21:56;101576.41;;;19.40;78.00
74103;BME280;62853;46.166;3.640;2022-08-21T08:24:22;101581.75;;;19.40;78.24
74103;BME280;62853;46.166;3.640;2022-08-21T08:26:47;101566.19;;;19.33;77.89
74103;BME280;62853;46.166;3.640;2022-08-21T08:29:12;101561.97;;;19.31;79.17
74103;BME280;62853;46.166;3.640;2022-08-21T08:31:38;101574.69;;;19.39;78.45
74103;BME280;62853;46.166;3.640;2022-08-21T08:34:03;101565.06;;;19.47;78.36
74103;BME280;62853;46.166;3.640;2022-08-21T08:36:34;101582.31;;;19.55;78.51
74103;BME280;62853;46.166;3.640;2022-08-21T08:39:01;101572.84;;;19.50;77.83
74103;BME280;62853;46.166;3.640;2022-08-21T08:41:27;101569.22;;;19.51;78.65
74103;BME280;62853;46.166;3.640;2022-08-21T08:43:55;101573.53;;;19.64;78.32
74103;BME280;62853;46.166;3.640;2022-08-21T08:46:36;101566.72;;;19.82;77.60
74103;BME280;62853;46.166;3.640;2022-08-21T08:49:11;101557.22;;;19.89;76.73
74103;BME280;62853;46.166;3.640;2022-08-21T08:54:14;101554.53;;;19.89;75.76
74103;BME280;62853;46.166;3.640;2022-08-21T08:56:40;101551.97;;;19.88;75.23
74103;BME280;62853;46.166;3.640;2022-08-21T08:59:19;101550.31;;;20.08;76.48
74103;BME280;62853;46.166;3.640;2022-08-21T09:01:47;101541.13;;;20.22;75.90
74103;BME280;62853;46.166;3.640;2022-08-21T09:04:19;101536.41;;;20.25;73.33
74103;BME280;62853;46.166;3.640;2022-08-21T09:09:31;101532.06;;;19.92;73.45
74103;BME280;62853;46.166;3.640;2022-08-21T09:12:30;101540.00;;;19.82;74.78
74103;BME280;62853;46.166;3.640;2022-08-21T09:15:05;101537.69;;;19.78;74.06
74103;BME280;62853;46.166;3.640;2022-08-21T09:26:15;101542.97;;;19.45;73.21
74103;BME280;62853;46.166;3.640;2022-08-21T09:28:42;101534.00;;;19.35;73.90
74103;BME280;62853;46.166;3.640;2022-08-21T09:31:21;101543.84;;;19.35;75.09
74103;BME280;62853;46.166;3.640;2022-08-21T09:33:47;101535.91;;;19.44;74.78
74103;BME280;62853;46.166;3.640;2022-08-21T09:36:24;101544.16;;;19.52;74.38
74103;BME280;62853;46.166;3.640;2022-08-21T09:38:53;101542.84;;;19.58;71.41
74103;BME280;62853;46.166;3.640;2022-08-21T09:41:27;101540.97;;;19.70;71.89
74103;BME280;62853;46.166;3.640;2022-08-21T09:43:53;101546.25;;;19.93;72.44
74103;BME280;62853;46.166;3.640;2022-08-21T09:46:24;101536.38;;;20.04;73.48
74103;BME280;62853;46.166;3.640;2022-08-21T09:48:52;101547.03;;;20.16;72.84
74103;BME280;62853;46.166;3.640;2022-08-21T09:51:24;101542.84;;;20.23;70.01
74103;BME280;62853;46.166;3.640;2022-08-21T09:59:33;101534.03;;;20.11;71.47
74103;BME280;62853;46.166;3.640;2022-08-21T10:02:01;101531.84;;;20.05;70.44
74103;BME280;62853;46.166;3.640;2022-08-21T10:04:31;101526.19;;;19.98;71.17
74103;BME280;62853;46.166;3.640;2022-08-21T10:07:10;101524.25;;;20.00;71.71
74103;BME280;62853;46.166;3.640;2022-08-21T10:09:37;101534.41;;;20.06;72.01
74103;BME280;62853;46.166;3.640;2022-08-21T10:12:22;101533.91;;;20.13;72.34
74103;BME280;62853;46.166;3.640;2022-08-21T10:14:59;101534.94;;;20.21;70.22
74103;BME280;62853;46.166;3.640;2022-08-21T10:20:23;101532.72;;;20.26;68.48
74103;BME280;62853;46.166;3.640;2022-08-21T10:25:22;101520.91;;;20.50;65.87
74103;BME280;62853;46.166;3.640;2022-08-21T10:28:25;101520.66;;;20.74;68.69
74103;BME280;62853;46.166;3.640;2022-08-21T10:31:28;101534.38;;;20.91;65.38
74103;BME280;62853;46.166;3.640;2022-08-21T10:36:21;101532.16;;;21.06;66.55
74103;BME280;62853;46.166;3.640;2022-08-21T10:42:52;101534.88;;;21.15;66.63
74103;BME280;62853;46.166;3.640;2022-08-21T10:47:34;101534.75;;;21.17;65.19
74103;BME280;62853;46.166;3.640;2022-08-21T10:58:29;101526.63;;;21.28;65.06
74103;BME280;62853;46.166;3.640;2022-08-21T11:01:00;101527.75;;;21.35;64.67
74103;BME280;62853;46.166;3.640;2022-08-21T11:03:41;101515.88;;;21.38;62.17
74103;BME280;62853;46.166;3.640;2022-08-21T11:06:23;101516.78;;;21.48;64.48
74103;BME280;62853;46.166;3.640;2022-08-21T11:08:50;101519.06;;;21.53;65.55
74103;BME280;62853;46.166;3.640;2022-08-21T11:11:30;101522.16;;;21.58;64.24
74103;BME280;62853;46.166;3.640;2022-08-21T11:14:03;101524.03;;;21.67;63.76
74103;BME280;62853;46.166;3.640;2022-08-21T11:16:46;101520.63;;;21.55;62.54
74103;BME280;62853;46.166;3.640;2022-08-21T11:19:47;101521.53;;;21.45;63.26
74103;BME280;62853;46.166;3.640;2022-08-21T11:22:18;101518.00;;;21.34;60.99
74103;BME280;62853;46.166;3.640;2022-08-21T11:24:52;101519.38;;;21.19;59.97
74103;BME280;62853;46.166;3.640;2022-08-21T11:27:26;101509.50;;;21.19;59.76
74103;BME280;62853;46.166;3.640;2022-08-21T11:29:56;101510.53;;;21.28;62.32
74103;BME280;62853;46.166;3.640;2022-08-21T11:33:25;101502.00;;;21.54;63.47
74103;BME280;62853;46.166;3.640;2022-08-21T11:35:41;101508.50;;;21.71;59.15
74103;BME280;62853;46.166;3.640;2022-08-21T11:46:08;101507.22;;;21.85;57.99
74103;BME280;62853;46.166;3.640;2022-08-21T11:51:06;101501.53;;;22.07;58.74
74103;BME280;62853;46.166;3.640;2022-08-21T11:53:39;101510.41;;;22.27;59.37
74103;BME280;62853;46.166;3.640;2022-08-21T11:56:34;101514.94;;;22.46;60.95
74103;BME280;62853;46.166;3.640;2022-08-21T11:59:16;101516.81;;;22.36;59.32
74103;BME280;62853;46.166;3.640;2022-08-21T12:01:46;101525.41;;;22.40;59.56
74103;BME280;62853;46.166;3.640;2022-08-21T12:06:45;101512.53;;;22.43;58.62
74103;BME280;62853;46.166;3.640;2022-08-21T12:09:30;101510.97;;;22.41;58.61
74103;BME280;62853;46.166;3.640;2022-08-21T12:12:04;101522.59;;;22.32;58.60
74103;BME280;62853;46.166;3.640;2022-08-21T12:14:44;101525.69;;;22.17;60.14
74103;BME280;62853;46.166;3.640;2022-08-21T12:17:23;101523.00;;;22.07;57.51
74103;BME280;62853;46.166;3.640;2022-08-21T12:20:01;101507.09;;;21.96;57.78
74103;BME280;62853;46.166;3.640;2022-08-21T12:22:39;101505.38;;;21.95;57.96
74103;BME280;62853;46.166;3.640;2022-08-21T12:25:11;101514.81;;;22.09;57.28
74103;BME280;62853;46.166;3.640;2022-08-21T12:27:46;101509.88;;;22.34;57.81
74103;BME280;62853;46.166;3.640;2022-08-21T12:30:33;101507.56;;;22.58;57.84
74103;BME280;62853;46.166;3.640;2022-08-21T12:33:04;101510.84;;;22.80;56.42
74103;BME280;62853;46.166;3.640;2022-08-21T12:35:38;101506.44;;;22.89;57.17
74103;BME280;62853;46.166;3.640;2022-08-21T12:38:28;101500.00;;;22.99;59.38
74103;BME280;62853;46.166;3.640;2022-08-21T12:41:06;101497.03;;;23.02;53.15
74103;BME280;62853;46.166;3.640;2022-08-21T12:44:01;101504.94;;;23.14;56.49
74103;BME280;62853;46.166;3.640;2022-08-21T12:46:34;101498.72;;;23.03;53.56
74103;BME280;62853;46.166;3.640;2022-08-21T12:49:08;101498.03;;;23.01;51.72
74103;BME280;62853;46.166;3.640;2022-08-21T12:54:41;101501.56;;;23.02;56.01
74103;BME280;62853;46.166;3.640;2022-08-21T12:57:07;101502.13;;;23.06;56.84
74103;BME280;62853;46.166;3.640;2022-08-21T12:59:38;101503.22;;;23.13;57.39
74103;BME280;62853;46.166;3.640;2022-08-21T13:02:15;101492.19;;;23.16;56.26
74103;BME280;62853;46.166;3.640;2022-08-21T13:04:42;101491.16;;;23.17;55.41
74103;BME280;62853;46.166;3.640;2022-08-21T13:07:15;101494.47;;;23.11;54.14
74103;BME280;62853;46.166;3.640;2022-08-21T13:09:48;101502.25;;;23.04;55.06
74103;BME280;62853;46.166;3.640;2022-08-21T13:12:15;101500.19;;;22.88;56.18
74103;BME280;62853;46.166;3.640;2022-08-21T13:14:44;101502.94;;;22.78;56.82
74103;BME280;62853;46.166;3.640;2022-08-21T13:17:12;101507.31;;;22.79;56.59
74103;BME280;62853;46.166;3.640;2022-08-21T13:19:37;101501.50;;;22.84;53.87
74103;BME280;62853;46.166;3.640;2022-08-21T13:22:03;101492.84;;;22.90;56.92
74103;BME280;62853;46.166;3.640;2022-08-21T13:24:32;101505.09;;;23.02;54.63
74103;BME280;62853;46.166;3.640;2022-08-21T13:26:58;101489.81;;;23.03;56.70
74103;BME280;62853;46.166;3.640;2022-08-21T13:29:30;101494.94;;;22.96;56.37
74103;BME280;62853;46.166;3.640;2022-08-21T13:32:01;101502.50;;;22.83;55.49
74103;BME280;62853;46.166;3.640;2022-08-21T13:34:34;101498.16;;;22.72;56.64
74103;BME280;62853;46.166;3.640;2022-08-21T13:37:06;101490.69;;;22.66;54.81
74103;BME280;62853;46.166;3.640;2022-08-21T13:39:32;101493.50;;;22.74;56.60
74103;BME280;62853;46.166;3.640;2022-08-21T13:42:00;101488.41;;;22.71;55.72
74103;BME280;62853;46.166;3.640;2022-08-21T13:47:02;101490.06;;;22.82;54.64
74103;BME280;62853;46.166;3.640;2022-08-21T13:49:37;101497.38;;;22.90;53.50
74103;BME280;62853;46.166;3.640;2022-08-21T13:52:04;101486.78;;;22.88;52.09
74103;BME280;62853;46.166;3.640;2022-08-21T13:54:37;101483.66;;;22.93;55.60
74103;BME280;62853;46.166;3.640;2022-08-21T13:57:03;101483.59;;;23.02;52.59
74103;BME280;62853;46.166;3.640;2022-08-21T13:59:34;101476.53;;;23.01;52.30
74103;BME280;62853;46.166;3.640;2022-08-21T14:02:01;101480.22;;;23.00;52.07